THY6MD LTFJ-LTBS
Flight info
| Callsign | THY6MD |
|---|---|
| Flight time | 0h 47m |
| Altitude | 36000 |
| Route | ROXUK UT409 NUMTI UT241 DEN/N0441F350 UW87 LAVTA/N0408F270 W87 ATSAL |
| Aircraft | A320/M-SDE3FGHIRWY/LB1 |
Departure
| Time | 2026-04-25 15:45 |
|---|---|
| Airport | Istanbul Sabiha Gökçen International Airport (LTFJ) |
Arrival
| Time | 2026-04-25 16:33 |
|---|---|
| Airport | Dalaman International Airport (LTBS) |
| Time | Latitude | Longitude | Altitude | Speed | Heading |
|---|---|---|---|---|---|
| 2026-04-25 15:19 | 40.89822 | 29.32028 | 320 ft | 0 kts | 245° |
| 2026-04-25 15:36 | 40.89824 | 29.32035 | 320 ft | 2 kts | 248° |
| 2026-04-25 15:36 | 40.89830 | 29.32053 | 320 ft | 2 kts | 244° |
| 2026-04-25 15:37 | 40.89836 | 29.32071 | 320 ft | 2 kts | 245° |
| 2026-04-25 15:37 | 40.89843 | 29.32089 | 320 ft | 2 kts | 245° |
| 2026-04-25 15:37 | 40.89848 | 29.32102 | 320 ft | 0 kts | 245° |
| 2026-04-25 15:37 | 40.89854 | 29.32115 | 320 ft | 2 kts | 205° |
| 2026-04-25 15:38 | 40.89868 | 29.32118 | 320 ft | 0 kts | 160° |
| 2026-04-25 15:38 | 40.89874 | 29.32114 | 320 ft | 1 kts | 150° |
| 2026-04-25 15:38 | 40.89876 | 29.32112 | 320 ft | 0 kts | 153° |
| 2026-04-25 15:39 | 40.89875 | 29.32112 | 320 ft | 1 kts | 153° |
| 2026-04-25 15:40 | 40.89816 | 29.32149 | 320 ft | 11 kts | 154° |
| 2026-04-25 15:40 | 40.89747 | 29.32193 | 320 ft | 20 kts | 153° |
| 2026-04-25 15:40 | 40.89577 | 29.32306 | 320 ft | 17 kts | 146° |
| 2026-04-25 15:40 | 40.89483 | 29.32360 | 320 ft | 15 kts | 202° |
| 2026-04-25 15:41 | 40.89428 | 29.32243 | 320 ft | 15 kts | 245° |
| 2026-04-25 15:41 | 40.89376 | 29.32102 | 320 ft | 20 kts | 242° |
| 2026-04-25 15:41 | 40.89310 | 29.31926 | 320 ft | 21 kts | 244° |
| 2026-04-25 15:41 | 40.89243 | 29.31746 | 320 ft | 22 kts | 244° |
| 2026-04-25 15:42 | 40.89172 | 29.31553 | 320 ft | 23 kts | 244° |
| 2026-04-25 15:42 | 40.89100 | 29.31357 | 320 ft | 23 kts | 242° |
| 2026-04-25 15:42 | 40.89031 | 29.31168 | 320 ft | 22 kts | 244° |
| 2026-04-25 15:42 | 40.88954 | 29.30959 | 320 ft | 29 kts | 243° |
| 2026-04-25 15:43 | 40.88858 | 29.30704 | 320 ft | 30 kts | 242° |
| 2026-04-25 15:43 | 40.88770 | 29.30461 | 319 ft | 29 kts | 243° |
| 2026-04-25 15:43 | 40.88686 | 29.30239 | 319 ft | 17 kts | 245° |
| 2026-04-25 15:43 | 40.88618 | 29.30187 | 319 ft | 7 kts | 159° |
| 2026-04-25 15:44 | 40.88607 | 29.30194 | 319 ft | 0 kts | 154° |
| 2026-04-25 15:44 | 40.88575 | 29.30215 | 319 ft | 7 kts | 153° |
| 2026-04-25 15:44 | 40.88520 | 29.30251 | 319 ft | 10 kts | 152° |
| 2026-04-25 15:44 | 40.88509 | 29.30333 | 319 ft | 11 kts | 64° |
| 2026-04-25 15:45 | 40.88610 | 29.30601 | 320 ft | 65 kts | 63° |
| 2026-04-25 15:45 | 40.88905 | 29.31401 | 320 ft | 126 kts | 64° |
| 2026-04-25 15:45 | 40.89344 | 29.32601 | 552 ft | 154 kts | 62° |
| 2026-04-25 15:45 | 40.89650 | 29.33445 | 917 ft | 156 kts | 62° |
| 2026-04-25 15:46 | 40.90127 | 29.35216 | 1658 ft | 160 kts | 88° |
| 2026-04-25 15:46 | 40.89703 | 29.36596 | 2149 ft | 172 kts | 124° |
| 2026-04-25 15:46 | 40.88967 | 29.37891 | 2504 ft | 185 kts | 111° |
| 2026-04-25 15:46 | 40.88821 | 29.39618 | 2836 ft | 199 kts | 79° |
| 2026-04-25 15:47 | 40.89082 | 29.41533 | 3198 ft | 221 kts | 83° |
| 2026-04-25 15:47 | 40.89145 | 29.43617 | 3652 ft | 240 kts | 96° |
| 2026-04-25 15:47 | 40.88444 | 29.45694 | 4197 ft | 256 kts | 132° |
| 2026-04-25 15:47 | 40.86981 | 29.47032 | 4860 ft | 267 kts | 154° |
| 2026-04-25 15:48 | 40.85275 | 29.48074 | 5704 ft | 271 kts | 155° |
| 2026-04-25 15:48 | 40.83581 | 29.49123 | 6608 ft | 273 kts | 155° |
| 2026-04-25 15:48 | 40.81870 | 29.50193 | 7481 ft | 276 kts | 155° |
| 2026-04-25 15:48 | 40.80133 | 29.51288 | 8304 ft | 280 kts | 155° |
| 2026-04-25 15:49 | 40.78393 | 29.52396 | 9099 ft | 284 kts | 152° |
| 2026-04-25 15:49 | 40.76762 | 29.53862 | 9838 ft | 289 kts | 139° |
| 2026-04-25 15:49 | 40.75380 | 29.55838 | 10532 ft | 297 kts | 128° |
| 2026-04-25 15:49 | 40.74086 | 29.58091 | 10911 ft | 314 kts | 127° |
| 2026-04-25 15:50 | 40.72777 | 29.60435 | 11404 ft | 325 kts | 126° |
| 2026-04-25 15:50 | 40.71421 | 29.62846 | 12104 ft | 328 kts | 127° |
| 2026-04-25 15:50 | 40.70045 | 29.65266 | 12764 ft | 332 kts | 127° |
| 2026-04-25 15:50 | 40.68465 | 29.67484 | 13369 ft | 336 kts | 145° |
| 2026-04-25 15:51 | 40.66312 | 29.68701 | 14003 ft | 339 kts | 170° |
| 2026-04-25 15:51 | 40.64751 | 29.68845 | 14423 ft | 341 kts | 182° |
| 2026-04-25 15:51 | 40.61589 | 29.68712 | 15233 ft | 345 kts | 181° |
| 2026-04-25 15:51 | 40.59166 | 29.68696 | 15830 ft | 349 kts | 180° |
| 2026-04-25 15:52 | 40.56732 | 29.68695 | 16413 ft | 352 kts | 180° |
| 2026-04-25 15:52 | 40.54298 | 29.68695 | 16999 ft | 355 kts | 180° |
| 2026-04-25 15:52 | 40.51819 | 29.68694 | 17575 ft | 358 kts | 180° |
| 2026-04-25 15:52 | 40.49329 | 29.68690 | 18140 ft | 360 kts | 180° |
| 2026-04-25 15:53 | 40.46797 | 29.68685 | 18705 ft | 363 kts | 180° |
| 2026-04-25 15:53 | 40.44244 | 29.68678 | 19234 ft | 367 kts | 180° |
| 2026-04-25 15:53 | 40.41684 | 29.68671 | 19757 ft | 370 kts | 180° |
| 2026-04-25 15:53 | 40.39109 | 29.68664 | 20277 ft | 373 kts | 180° |
| 2026-04-25 15:54 | 40.36505 | 29.68657 | 20771 ft | 376 kts | 180° |
| 2026-04-25 15:54 | 40.33882 | 29.68433 | 21243 ft | 380 kts | 193° |
| 2026-04-25 15:54 | 40.31403 | 29.67189 | 21744 ft | 383 kts | 206° |
| 2026-04-25 15:54 | 40.29062 | 29.65591 | 22239 ft | 385 kts | 208° |
| 2026-04-25 15:55 | 40.26666 | 29.63922 | 22701 ft | 389 kts | 207° |
| 2026-04-25 15:55 | 40.24258 | 29.62290 | 23160 ft | 392 kts | 206° |
| 2026-04-25 15:55 | 40.21827 | 29.60687 | 23593 ft | 395 kts | 206° |
| 2026-04-25 15:55 | 40.19352 | 29.59089 | 24037 ft | 398 kts | 205° |
| 2026-04-25 15:56 | 40.16859 | 29.57501 | 24478 ft | 400 kts | 205° |
| 2026-04-25 15:56 | 40.14350 | 29.55916 | 24912 ft | 403 kts | 205° |
| 2026-04-25 15:56 | 40.11836 | 29.54334 | 25321 ft | 406 kts | 205° |
| 2026-04-25 15:56 | 40.09278 | 29.52729 | 25729 ft | 408 kts | 205° |
| 2026-04-25 15:57 | 40.06709 | 29.51122 | 26129 ft | 411 kts | 205° |
| 2026-04-25 15:57 | 40.04134 | 29.49514 | 26516 ft | 414 kts | 205° |
| 2026-04-25 15:57 | 40.01525 | 29.47887 | 26904 ft | 416 kts | 205° |
| 2026-04-25 15:57 | 39.98904 | 29.46253 | 27293 ft | 418 kts | 205° |
| 2026-04-25 15:58 | 39.96293 | 29.44628 | 27666 ft | 421 kts | 205° |
| 2026-04-25 15:58 | 39.93627 | 29.42970 | 28054 ft | 423 kts | 205° |
| 2026-04-25 15:58 | 39.90976 | 29.41323 | 28424 ft | 425 kts | 205° |
| 2026-04-25 15:58 | 39.88324 | 29.39677 | 28795 ft | 426 kts | 205° |
| 2026-04-25 15:59 | 39.85636 | 29.38010 | 29166 ft | 428 kts | 205° |
| 2026-04-25 15:59 | 39.82950 | 29.36345 | 29506 ft | 430 kts | 205° |
| 2026-04-25 15:59 | 39.80221 | 29.34655 | 29820 ft | 432 kts | 204° |
| 2026-04-25 15:59 | 39.77485 | 29.32962 | 30130 ft | 435 kts | 204° |
| 2026-04-25 16:00 | 39.74755 | 29.31276 | 30423 ft | 437 kts | 204° |
| 2026-04-25 16:00 | 39.73853 | 29.30718 | 30518 ft | 438 kts | 204° |
| 2026-04-25 16:00 | 39.69249 | 29.27876 | 31038 ft | 440 kts | 204° |
| 2026-04-25 16:00 | 39.66479 | 29.26166 | 31356 ft | 441 kts | 204° |
| 2026-04-25 16:01 | 39.63712 | 29.24461 | 31644 ft | 442 kts | 204° |
| 2026-04-25 16:01 | 39.60921 | 29.22745 | 31955 ft | 443 kts | 204° |
| 2026-04-25 16:01 | 39.58160 | 29.21048 | 32358 ft | 441 kts | 204° |
| 2026-04-25 16:01 | 39.55387 | 29.19344 | 32738 ft | 439 kts | 204° |
| 2026-04-25 16:02 | 39.52644 | 29.17660 | 33078 ft | 439 kts | 204° |
| 2026-04-25 16:02 | 39.49897 | 29.15976 | 33402 ft | 438 kts | 204° |
| 2026-04-25 16:02 | 39.47121 | 29.14276 | 33753 ft | 437 kts | 204° |
| 2026-04-25 16:02 | 39.44381 | 29.12598 | 34084 ft | 436 kts | 204° |
| 2026-04-25 16:03 | 39.41672 | 29.10941 | 34372 ft | 436 kts | 204° |
| 2026-04-25 16:03 | 39.38939 | 29.09270 | 34616 ft | 436 kts | 204° |
| 2026-04-25 16:03 | 39.36187 | 29.07591 | 34835 ft | 437 kts | 204° |
| 2026-04-25 16:03 | 39.33424 | 29.05907 | 35043 ft | 437 kts | 204° |
| 2026-04-25 16:04 | 39.30693 | 29.04243 | 35234 ft | 438 kts | 204° |
| 2026-04-25 16:04 | 39.27941 | 29.02568 | 35439 ft | 438 kts | 205° |
| 2026-04-25 16:04 | 39.25190 | 29.00895 | 35607 ft | 440 kts | 205° |
| 2026-04-25 16:04 | 39.22403 | 28.99202 | 35772 ft | 440 kts | 205° |
| 2026-04-25 16:05 | 39.19635 | 28.97521 | 35948 ft | 441 kts | 205° |
| 2026-04-25 16:05 | 39.16854 | 28.95833 | 36012 ft | 442 kts | 205° |
| 2026-04-25 16:06 | 39.08559 | 28.90804 | 36012 ft | 440 kts | 205° |
| 2026-04-25 16:06 | 39.03015 | 28.87452 | 36015 ft | 440 kts | 205° |
| 2026-04-25 16:07 | 38.97475 | 28.84109 | 36010 ft | 440 kts | 205° |
| 2026-04-25 16:07 | 38.91924 | 28.80765 | 36008 ft | 440 kts | 205° |
| 2026-04-25 16:08 | 38.86375 | 28.77428 | 36008 ft | 440 kts | 205° |
| 2026-04-25 16:08 | 38.80836 | 28.74101 | 35825 ft | 440 kts | 205° |
| 2026-04-25 16:08 | 38.78082 | 28.72448 | 35606 ft | 438 kts | 205° |
| 2026-04-25 16:09 | 38.75321 | 28.70793 | 35386 ft | 436 kts | 204° |
| 2026-04-25 16:09 | 38.72592 | 28.69159 | 35169 ft | 434 kts | 204° |
| 2026-04-25 16:09 | 38.69879 | 28.67536 | 34940 ft | 432 kts | 204° |
| 2026-04-25 16:09 | 38.67164 | 28.65912 | 34717 ft | 431 kts | 204° |
| 2026-04-25 16:10 | 38.64387 | 28.64325 | 34439 ft | 431 kts | 200° |
| 2026-04-25 16:10 | 38.61568 | 28.63044 | 34006 ft | 432 kts | 195° |
| 2026-04-25 16:10 | 38.58686 | 28.62091 | 33406 ft | 432 kts | 191° |
| 2026-04-25 16:10 | 38.55738 | 28.61470 | 32789 ft | 431 kts | 185° |
| 2026-04-25 16:11 | 38.52722 | 28.61185 | 32123 ft | 431 kts | 180° |
| 2026-04-25 16:11 | 38.49771 | 28.61242 | 31460 ft | 431 kts | 175° |
| 2026-04-25 16:11 | 38.46792 | 28.61559 | 31000 ft | 425 kts | 173° |
| 2026-04-25 16:11 | 38.43857 | 28.61906 | 30579 ft | 420 kts | 173° |
| 2026-04-25 16:12 | 38.40979 | 28.62254 | 30106 ft | 415 kts | 173° |
| 2026-04-25 16:12 | 38.38105 | 28.62601 | 29604 ft | 411 kts | 173° |
| 2026-04-25 16:12 | 38.35289 | 28.62937 | 29105 ft | 408 kts | 173° |
| 2026-04-25 16:12 | 38.33403 | 28.63162 | 28766 ft | 406 kts | 173° |
| 2026-04-25 16:13 | 38.29688 | 28.63601 | 28126 ft | 401 kts | 173° |
| 2026-04-25 16:13 | 38.26962 | 28.63924 | 27682 ft | 396 kts | 172° |
| 2026-04-25 16:13 | 38.24209 | 28.64250 | 27221 ft | 392 kts | 173° |
| 2026-04-25 16:13 | 38.21527 | 28.64565 | 26793 ft | 387 kts | 173° |
| 2026-04-25 16:14 | 38.18850 | 28.64881 | 26352 ft | 383 kts | 173° |
| 2026-04-25 16:14 | 38.16208 | 28.65191 | 25935 ft | 378 kts | 173° |
| 2026-04-25 16:14 | 38.13600 | 28.65496 | 25527 ft | 374 kts | 173° |
| 2026-04-25 16:14 | 38.11042 | 28.65796 | 25111 ft | 370 kts | 173° |
| 2026-04-25 16:15 | 38.08503 | 28.66095 | 24676 ft | 366 kts | 173° |
| 2026-04-25 16:15 | 38.05975 | 28.66391 | 24252 ft | 363 kts | 173° |
| 2026-04-25 16:15 | 38.03470 | 28.66685 | 23828 ft | 359 kts | 173° |
| 2026-04-25 16:15 | 38.00990 | 28.66976 | 23386 ft | 357 kts | 173° |
| 2026-04-25 16:16 | 37.98544 | 28.67263 | 22953 ft | 355 kts | 174° |
| 2026-04-25 16:16 | 37.96077 | 28.67551 | 22515 ft | 353 kts | 174° |
| 2026-04-25 16:16 | 37.93662 | 28.67833 | 22084 ft | 351 kts | 174° |
| 2026-04-25 16:16 | 37.91236 | 28.68115 | 21659 ft | 349 kts | 174° |
| 2026-04-25 16:17 | 37.88815 | 28.68397 | 21233 ft | 347 kts | 174° |
| 2026-04-25 16:17 | 37.86391 | 28.68679 | 20793 ft | 346 kts | 174° |
| 2026-04-25 16:17 | 37.84008 | 28.68957 | 20370 ft | 345 kts | 174° |
| 2026-04-25 16:17 | 37.81615 | 28.69235 | 19951 ft | 343 kts | 174° |
| 2026-04-25 16:18 | 37.79239 | 28.69511 | 19533 ft | 342 kts | 174° |
| 2026-04-25 16:18 | 37.78444 | 28.69604 | 19389 ft | 342 kts | 174° |
| 2026-04-25 16:18 | 37.74502 | 28.70062 | 18678 ft | 340 kts | 174° |
| 2026-04-25 16:18 | 37.72136 | 28.70326 | 18225 ft | 340 kts | 175° |
| 2026-04-25 16:19 | 37.69785 | 28.70501 | 17795 ft | 340 kts | 176° |
| 2026-04-25 16:19 | 37.67414 | 28.70671 | 17356 ft | 339 kts | 176° |
| 2026-04-25 16:19 | 37.65059 | 28.70838 | 16906 ft | 339 kts | 176° |
| 2026-04-25 16:20 | 37.61145 | 28.71114 | 16180 ft | 337 kts | 176° |
| 2026-04-25 16:20 | 37.58057 | 28.71332 | 15614 ft | 335 kts | 176° |
| 2026-04-25 16:20 | 37.53404 | 28.71660 | 14757 ft | 333 kts | 176° |
| 2026-04-25 16:21 | 37.51103 | 28.71822 | 14337 ft | 331 kts | 176° |
| 2026-04-25 16:21 | 37.48788 | 28.72001 | 13899 ft | 330 kts | 176° |
| 2026-04-25 16:21 | 37.46499 | 28.72221 | 13476 ft | 329 kts | 175° |
| 2026-04-25 16:21 | 37.44244 | 28.72447 | 13050 ft | 327 kts | 175° |
| 2026-04-25 16:22 | 37.41978 | 28.72671 | 12638 ft | 325 kts | 175° |
| 2026-04-25 16:22 | 37.39729 | 28.72891 | 12215 ft | 324 kts | 175° |
| 2026-04-25 16:22 | 37.37480 | 28.73108 | 11806 ft | 321 kts | 176° |
| 2026-04-25 16:22 | 37.35265 | 28.73321 | 11402 ft | 320 kts | 176° |
| 2026-04-25 16:23 | 37.33048 | 28.73496 | 10982 ft | 317 kts | 177° |
| 2026-04-25 16:23 | 37.30853 | 28.73652 | 10586 ft | 315 kts | 177° |
| 2026-04-25 16:23 | 37.28692 | 28.73807 | 10243 ft | 310 kts | 176° |
| 2026-04-25 16:23 | 37.26561 | 28.73964 | 10143 ft | 298 kts | 177° |
| 2026-04-25 16:24 | 37.24538 | 28.74114 | 10015 ft | 287 kts | 176° |
| 2026-04-25 16:24 | 37.22555 | 28.74260 | 9781 ft | 281 kts | 176° |
| 2026-04-25 16:24 | 37.20631 | 28.74402 | 9519 ft | 276 kts | 176° |
| 2026-04-25 16:24 | 37.18740 | 28.74543 | 9498 ft | 269 kts | 176° |
| 2026-04-25 16:25 | 37.16877 | 28.74876 | 9493 ft | 269 kts | 166° |
| 2026-04-25 16:25 | 37.15693 | 28.75300 | 9494 ft | 269 kts | 163° |
| 2026-04-25 16:25 | 37.13306 | 28.76244 | 9498 ft | 269 kts | 163° |
| 2026-04-25 16:25 | 37.11511 | 28.76940 | 9503 ft | 269 kts | 164° |
| 2026-04-25 16:26 | 37.09722 | 28.77615 | 9333 ft | 269 kts | 164° |
| 2026-04-25 16:26 | 37.07937 | 28.78272 | 8985 ft | 267 kts | 164° |
| 2026-04-25 16:26 | 37.06160 | 28.78919 | 8578 ft | 266 kts | 164° |
| 2026-04-25 16:26 | 37.04374 | 28.79565 | 8166 ft | 267 kts | 163° |
| 2026-04-25 16:27 | 37.02580 | 28.80214 | 7761 ft | 268 kts | 163° |
| 2026-04-25 16:27 | 37.00787 | 28.80857 | 7343 ft | 269 kts | 163° |
| 2026-04-25 16:27 | 36.98996 | 28.81499 | 6882 ft | 268 kts | 163° |
| 2026-04-25 16:27 | 36.97242 | 28.82125 | 6417 ft | 260 kts | 162° |
| 2026-04-25 16:28 | 36.95530 | 28.82737 | 5966 ft | 253 kts | 162° |
| 2026-04-25 16:28 | 36.93860 | 28.83335 | 5531 ft | 246 kts | 162° |
| 2026-04-25 16:28 | 36.92233 | 28.83918 | 5102 ft | 241 kts | 162° |
| 2026-04-25 16:28 | 36.90658 | 28.84483 | 4675 ft | 227 kts | 162° |
| 2026-04-25 16:29 | 36.89194 | 28.84999 | 4265 ft | 215 kts | 166° |
| 2026-04-25 16:29 | 36.87753 | 28.84972 | 3924 ft | 202 kts | 193° |
| 2026-04-25 16:29 | 36.86436 | 28.84478 | 3547 ft | 193 kts | 195° |
| 2026-04-25 16:29 | 36.85198 | 28.84019 | 3205 ft | 180 kts | 195° |
| 2026-04-25 16:30 | 36.84013 | 28.83594 | 2840 ft | 172 kts | 194° |
| 2026-04-25 16:30 | 36.82877 | 28.83200 | 2464 ft | 168 kts | 194° |
| 2026-04-25 16:30 | 36.81775 | 28.82817 | 2100 ft | 164 kts | 194° |
| 2026-04-25 16:30 | 36.80702 | 28.82431 | 1773 ft | 158 kts | 193° |
| 2026-04-25 16:31 | 36.79667 | 28.82067 | 1525 ft | 152 kts | 192° |
| 2026-04-25 16:31 | 36.78662 | 28.81714 | 1235 ft | 147 kts | 193° |
| 2026-04-25 16:31 | 36.77679 | 28.81398 | 1057 ft | 146 kts | 193° |
| 2026-04-25 16:31 | 36.76706 | 28.81081 | 848 ft | 144 kts | 193° |
| 2026-04-25 16:32 | 36.75741 | 28.80755 | 671 ft | 142 kts | 194° |
| 2026-04-25 16:32 | 36.74795 | 28.80432 | 487 ft | 140 kts | 193° |
| 2026-04-25 16:32 | 36.73850 | 28.80112 | 302 ft | 139 kts | 194° |
| 2026-04-25 16:32 | 36.72927 | 28.79792 | 116 ft | 137 kts | 194° |
| 2026-04-25 16:33 | 36.72022 | 28.79484 | 30 ft | 129 kts | 194° |
| 2026-04-25 16:33 | 36.71262 | 28.79233 | 18 ft | 83 kts | 194° |
| 2026-04-25 16:33 | 36.70946 | 28.79123 | 16 ft | 28 kts | 196° |
| 2026-04-25 16:33 | 36.70763 | 28.79051 | 15 ft | 27 kts | 209° |
| 2026-04-25 16:34 | 36.70616 | 28.78911 | 14 ft | 25 kts | 225° |
| 2026-04-25 16:34 | 36.70624 | 28.78807 | 16 ft | 15 kts | 3° |
| 2026-04-25 16:34 | 36.70731 | 28.78839 | 16 ft | 16 kts | 15° |
| 2026-04-25 16:34 | 36.70845 | 28.78877 | 16 ft | 17 kts | 15° |
| 2026-04-25 16:35 | 36.70970 | 28.78921 | 16 ft | 20 kts | 16° |
| 2026-04-25 16:35 | 36.71106 | 28.78967 | 18 ft | 20 kts | 14° |
| 2026-04-25 16:35 | 36.71240 | 28.79009 | 19 ft | 19 kts | 16° |
| 2026-04-25 16:35 | 36.71339 | 28.78948 | 19 ft | 15 kts | 286° |
| 2026-04-25 16:36 | 36.71374 | 28.78860 | 20 ft | 10 kts | 319° |
| 2026-04-25 16:36 | 36.71392 | 28.78840 | 20 ft | 10 kts | 316° |
| 2026-04-25 16:36 | 36.71418 | 28.78747 | 21 ft | 0 kts | 285° |